Time;durP1;ratioP1;P1;durP2;ratioP2;P2;SDS_P1;SDS_P2;PMS_P1;PMS_P2;Temp;Humidity;BMP_temperature;BMP_pressure;BME280_temperature;BME280_humidity;BME280_pressure;Samples;Min_cycle;Max_cycle;Signal;HPM_P1;HPM_P2
2023/07/24 00:01:19;;;;;;;11.05;3.65;;;17.70;99.90;;;;;;4213786;28;20043;-81
2023/07/24 00:03:19;;;;;;;10.55;3.42;;;17.50;99.90;;;;;;4231416;28;20110;-80
2023/07/24 00:05:23;;;;;;;7.18;3.38;;;17.50;99.90;;;;;;4231755;28;20055;-80
2023/07/24 00:07:24;;;;;;;7.30;3.47;;;17.60;99.90;;;;;;4230699;28;20040;-81
2023/07/24 00:09:25;;;;;;;7.90;3.58;;;16.40;99.90;;;;;;4231724;28;20491;-80
2023/07/24 00:11:26;;;;;;;7.55;3.45;;;17.20;99.90;;;;;;4230433;28;20032;-81
2023/07/24 00:13:27;;;;;;;11.40;3.72;;;17.60;99.90;;;;;;4229877;28;20043;-81
2023/07/24 00:15:27;;;;;;;8.70;3.58;;;17.60;99.90;;;;;;4231588;27;20046;-80
2023/07/24 00:17:28;;;;;;;8.27;3.40;;;17.50;99.90;;;;;;4231421;28;20074;-81
2023/07/24 00:19:29;;;;;;;7.13;3.00;;;17.60;99.90;;;;;;4230140;28;20134;-80
2023/07/24 00:21:30;;;;;;;10.88;3.78;;;17.50;99.90;;;;;;4229899;28;20105;-80
2023/07/24 00:23:30;;;;;;;7.70;3.20;;;17.60;99.90;;;;;;4231851;28;20061;-80
2023/07/24 00:25:31;;;;;;;10.23;3.25;;;17.40;99.90;;;;;;4213255;28;20048;-80
2023/07/24 00:27:32;;;;;;;8.52;3.50;;;17.50;99.90;;;;;;4213436;28;20479;-80
2023/07/24 00:29:33;;;;;;;10.93;3.33;;;17.70;99.90;;;;;;4213134;28;20127;-80
2023/07/24 00:31:34;;;;;;;7.18;3.25;;;17.50;99.90;;;;;;4231282;28;20173;-80
2023/07/24 00:33:35;;;;;;;6.50;3.00;;;17.50;99.90;;;;;;4230928;28;20055;-81
2023/07/24 00:35:36;;;;;;;9.30;3.20;;;17.60;99.90;;;;;;4231351;28;20051;-81
2023/07/24 00:37:37;;;;;;;6.93;2.97;;;17.30;99.90;;;;;;4229931;28;20043;-81
2023/07/24 00:39:37;;;;;;;8.57;3.80;;;17.30;99.90;;;;;;4230891;28;20043;-81
2023/07/24 00:41:38;;;;;;;7.50;2.90;;;17.40;99.90;;;;;;4231044;28;20544;-81
2023/07/24 00:43:39;;;;;;;6.53;3.67;;;17.30;99.90;;;;;;4230309;28;20043;-81
2023/07/24 00:45:39;;;;;;;8.68;3.13;;;17.40;99.90;;;;;;4212723;28;20480;-81
2023/07/24 00:47:43;;;;;;;10.82;4.05;;;17.40;99.90;;;;;;4230568;28;20100;-81
2023/07/24 00:49:44;;;;;;;9.05;3.40;;;17.50;99.90;;;;;;4230893;28;20047;-81
2023/07/24 00:51:46;;;;;;;7.00;3.60;;;17.30;99.90;;;;;;4229039;28;20536;-81
2023/07/24 00:53:47;;;;;;;8.27;3.55;;;17.30;99.90;;;;;;4229447;28;20201;-81
2023/07/24 00:55:48;;;;;;;10.48;3.95;;;17.20;99.90;;;;;;4212903;28;20047;-80
2023/07/24 00:57:49;;;;;;;9.10;3.30;;;17.70;99.90;;;;;;4230938;28;20513;-81
2023/07/24 00:59:50;;;;;;;7.35;3.42;;;17.20;99.90;;;;;;4229551;28;20380;-80
2023/07/24 01:01:51;;;;;;;7.15;3.17;;;17.10;99.90;;;;;;4230892;28;20121;-81
2023/07/24 01:03:52;;;;;;;9.48;4.13;;;17.20;99.90;;;;;;4212082;28;20111;-81
2023/07/24 01:05:55;;;;;;;8.25;3.80;;;17.10;99.90;;;;;;4229822;28;20152;-81
2023/07/24 01:07:55;;;;;;;7.28;3.40;;;17.10;99.90;;;;;;4229215;28;20043;-80
2023/07/24 01:09:56;;;;;;;11.18;4.63;;;17.10;99.90;;;;;;4230868;28;20505;-81
2023/07/24 01:12:02;;;;;;;9.13;3.67;;;17.50;99.90;;;;;;4230995;28;20483;-81
2023/07/24 01:14:11;;;;;;;8.93;3.55;;;17.10;99.90;;;;;;4229323;28;20489;-81
2023/07/24 01:16:19;;;;;;;8.77;3.72;;;17.10;99.90;;;;;;4230160;28;20047;-80
2023/07/24 01:18:22;;;;;;;8.07;4.10;;;17.10;99.90;;;;;;4231562;28;20395;-80
2023/07/24 01:20:28;;;;;;;13.02;4.25;;;17.10;99.90;;;;;;4231102;28;20043;-80
2023/07/24 01:22:29;;;;;;;9.60;4.03;;;17.10;99.90;;;;;;4230633;28;20077;-80
2023/07/24 01:24:37;;;;;;;9.75;3.88;;;16.90;99.90;;;;;;4231145;28;20067;-80
2023/07/24 01:26:38;;;;;;;9.02;3.80;;;17.50;99.90;;;;;;4230624;28;20047;-80
2023/07/24 01:28:39;;;;;;;9.30;4.00;;;17.00;99.90;;;;;;4228996;28;20135;-80
2023/07/24 01:30:40;;;;;;;8.98;3.92;;;17.00;99.90;;;;;;4230709;28;20473;-81
2023/07/24 01:32:41;;;;;;;9.65;4.57;;;15.50;99.90;;;;;;4229089;28;20075;-80
2023/07/24 01:34:42;;;;;;;10.25;4.13;;;16.80;99.90;;;;;;4228378;28;20515;-80
2023/07/24 01:36:43;;;;;;;14.48;4.20;;;16.90;99.90;;;;;;4230642;28;20414;-80
2023/07/24 01:38:43;;;;;;;9.40;4.40;;;16.90;99.90;;;;;;4228780;28;20048;-80
2023/07/24 01:40:45;;;;;;;8.18;4.75;;;16.80;99.90;;;;;;4229074;28;20501;-80
2023/07/24 01:42:46;;;;;;;11.18;5.30;;;16.90;99.90;;;;;;4229507;28;20474;-80
2023/07/24 01:44:56;;;;;;;9.07;4.97;;;16.80;99.90;;;;;;4230111;28;20045;-80
2023/07/24 01:46:57;;;;;;;12.43;5.70;;;16.70;99.90;;;;;;4230187;28;20039;-80
2023/07/24 01:48:57;;;;;;;12.18;5.25;;;16.70;99.90;;;;;;4229816;28;20058;-80
2023/07/24 01:50:58;;;;;;;11.02;4.28;;;17.40;99.90;;;;;;4212268;28;20131;-80
2023/07/24 01:52:59;;;;;;;11.77;4.90;;;16.70;99.90;;;;;;4230001;28;20074;-80
2023/07/24 01:54:59;;;;;;;12.45;5.20;;;16.80;99.90;;;;;;4228655;28;20036;-80
2023/07/24 01:57:00;;;;;;;9.55;4.88;;;16.80;99.90;;;;;;4230128;28;20134;-80
2023/07/24 01:59:01;;;;;;;12.20;5.38;;;16.80;99.90;;;;;;4228676;28;20384;-80
2023/07/24 02:01:01;;;;;;;12.15;5.00;;;16.70;99.90;;;;;;4228699;28;20093;-80
2023/07/24 02:03:02;;;;;;;9.68;5.45;;;16.70;99.90;;;;;;4228890;28;20131;-80
2023/07/24 02:05:03;;;;;;;9.77;5.18;;;17.80;99.90;;;;;;4230100;28;20043;-81
2023/07/24 02:07:04;;;;;;;14.35;5.88;;;17.00;99.90;;;;;;4228231;28;20052;-80
2023/07/24 02:09:04;;;;;;;11.48;4.97;;;16.80;99.90;;;;;;4234752;28;20121;-80
2023/07/24 02:11:05;;;;;;;13.32;6.30;;;16.70;99.90;;;;;;4245104;28;20048;-80
2023/07/24 02:13:07;;;;;;;14.88;6.78;;;17.60;99.90;;;;;;4239383;28;20036;-80
2023/07/24 02:15:08;;;;;;;10.63;5.60;;;16.80;99.90;;;;;;4213241;28;20048;-80
2023/07/24 02:17:08;;;;;;;11.57;6.28;;;16.80;99.90;;;;;;4231046;28;20050;-80
2023/07/24 02:19:09;;;;;;;9.65;5.45;;;16.70;99.90;;;;;;4229950;28;20479;-80
2023/07/24 02:21:10;;;;;;;11.50;6.07;;;16.80;99.90;;;;;;4230397;28;20035;-80
2023/07/24 02:23:11;;;;;;;11.57;5.88;;;16.90;99.90;;;;;;4229014;28;20048;-80
2023/07/24 02:25:12;;;;;;;11.07;5.95;;;16.70;99.90;;;;;;4230438;28;20043;-81
2023/07/24 02:27:16;;;;;;;11.35;6.15;;;16.70;99.90;;;;;;4229345;28;20391;-80
2023/07/24 02:29:17;;;;;;;12.82;6.38;;;16.80;99.90;;;;;;4229239;28;20488;-80
2023/07/24 02:31:17;;;;;;;10.98;6.18;;;16.80;99.90;;;;;;4234843;28;20104;-80
2023/07/24 02:33:18;;;;;;;14.23;6.97;;;17.00;99.90;;;;;;4230939;28;20122;-80
2023/07/24 02:35:19;;;;;;;11.38;5.93;;;16.90;99.90;;;;;;4232671;28;20593;-80
2023/07/24 02:37:19;;;;;;;13.75;6.75;;;16.60;99.90;;;;;;4233364;28;20044;-80
2023/07/24 02:39:21;;;;;;;11.43;6.32;;;16.80;99.90;;;;;;4215429;28;20056;-80
2023/07/24 02:41:21;;;;;;;14.10;6.70;;;16.70;99.90;;;;;;4215383;28;20056;-81
2023/07/24 02:43:22;;;;;;;10.55;6.45;;;16.70;99.90;;;;;;4233048;28;20040;-80
2023/07/24 02:45:23;;;;;;;15.52;6.07;;;16.60;99.90;;;;;;4214351;28;20043;-80
2023/07/24 02:47:23;;;;;;;14.23;7.35;;;16.70;99.90;;;;;;4232548;28;20123;-80
2023/07/24 02:49:24;;;;;;;13.45;6.90;;;16.60;99.90;;;;;;4232897;28;20578;-80
2023/07/24 02:51:25;;;;;;;13.05;6.38;;;16.60;99.90;;;;;;4231883;28;20048;-80
2023/07/24 02:53:25;;;;;;;16.10;7.07;;;16.60;99.90;;;;;;4230963;28;20055;-80
2023/07/24 02:55:26;;;;;;;14.85;6.65;;;16.50;99.90;;;;;;4232333;28;20395;-80
2023/07/24 02:57:27;;;;;;;13.55;7.30;;;16.60;99.90;;;;;;4231294;28;20042;-80
2023/07/24 02:59:28;;;;;;;15.65;7.38;;;17.40;99.90;;;;;;4232879;28;20043;-80
2023/07/24 03:01:29;;;;;;;13.25;7.22;;;16.50;99.90;;;;;;4230843;28;20055;-80
2023/07/24 03:03:31;;;;;;;13.57;7.63;;;16.60;99.90;;;;;;4231430;28;20046;-80
2023/07/24 03:05:36;;;;;;;11.35;6.82;;;17.10;99.90;;;;;;4231436;28;20051;-80
2023/07/24 03:07:36;;;;;;;16.25;7.32;;;16.70;99.90;;;;;;4231457;28;20048;-81
2023/07/24 03:09:37;;;;;;;15.10;7.72;;;16.60;99.90;;;;;;4232745;28;20043;-80
2023/07/24 03:11:37;;;;;;;14.85;6.60;;;16.80;99.90;;;;;;4232887;28;20083;-80
2023/07/24 03:13:40;;;;;;;14.77;6.45;;;16.70;99.90;;;;;;4231686;28;20123;-80
2023/07/24 03:15:41;;;;;;;13.50;6.90;;;16.90;99.90;;;;;;4232503;28;20043;-80
2023/07/24 03:17:42;;;;;;;13.75;6.45;;;17.50;99.90;;;;;;4230640;28;20083;-81
2023/07/24 03:19:42;;;;;;;13.93;6.80;;;16.70;99.90;;;;;;4232692;28;20079;-80
2023/07/24 03:21:43;;;;;;;13.85;6.07;;;16.80;99.90;;;;;;4230977;28;20061;-80
2023/07/24 03:23:44;;;;;;;13.40;6.18;;;16.80;99.90;;;;;;4231837;28;20048;-80
2023/07/24 03:25:44;;;;;;;15.13;7.03;;;16.80;99.90;;;;;;4230796;28;20051;-80
2023/07/24 03:27:45;;;;;;;14.50;6.85;;;16.80;99.90;;;;;;4230712;28;20059;-80
2023/07/24 03:29:46;;;;;;;14.68;6.50;;;16.70;99.90;;;;;;4230654;28;20047;-80
2023/07/24 03:31:47;;;;;;;10.90;6.13;;;16.90;99.90;;;;;;4232286;28;20044;-80
2023/07/24 03:33:47;;;;;;;12.32;6.00;;;16.80;99.90;;;;;;4245092;28;20048;-80
2023/07/24 03:35:48;;;;;;;18.92;6.10;;;16.70;99.90;;;;;;4248855;28;20063;-80
2023/07/24 03:37:49;;;;;;;12.20;5.88;;;17.60;99.90;;;;;;4233210;28;20043;-80
2023/07/24 03:39:49;;;;;;;12.90;6.45;;;16.80;99.90;;;;;;4231631;28;20124;-80
2023/07/24 03:41:50;;;;;;;12.55;4.90;;;16.80;99.90;;;;;;4230857;28;20043;-80
2023/07/24 03:43:51;;;;;;;11.88;5.38;;;16.90;99.90;;;;;;4232221;28;20040;-80
2023/07/24 03:45:51;;;;;;;10.88;5.63;;;16.90;99.90;;;;;;4232415;28;20032;-80
2023/07/24 03:47:52;;;;;;;10.75;5.15;;;16.90;99.90;;;;;;4232377;28;20062;-80
2023/07/24 03:49:53;;;;;;;8.02;5.22;;;17.00;99.90;;;;;;4232434;28;20107;-80
2023/07/24 03:51:53;;;;;;;15.57;5.53;;;16.90;99.90;;;;;;4214648;28;20096;-81
2023/07/24 03:53:54;;;;;;;9.70;5.55;;;17.00;99.90;;;;;;4231536;28;20040;-81
2023/07/24 03:55:55;;;;;;;20.45;6.80;;;17.00;99.90;;;;;;4230069;28;20060;-80
2023/07/24 03:57:55;;;;;;;8.30;4.90;;;16.20;99.90;;;;;;4230248;28;20511;-81
2023/07/24 03:59:56;;;;;;;16.00;5.28;;;17.00;99.90;;;;;;4231807;28;20467;-80
2023/07/24 04:01:57;;;;;;;10.65;4.97;;;16.90;99.90;;;;;;4231887;28;20082;-81
2023/07/24 04:03:59;;;;;;;16.00;5.03;;;17.50;99.90;;;;;;4230697;28;20044;-80
2023/07/24 04:05:59;;;;;;;10.85;5.22;;;17.10;99.90;;;;;;4232202;28;20035;-80
2023/07/24 04:08:00;;;;;;;10.45;4.80;;;16.90;99.90;;;;;;4231108;28;20028;-80
2023/07/24 04:10:01;;;;;;;11.82;5.28;;;17.00;99.90;;;;;;4231363;28;20068;-80
2023/07/24 04:12:01;;;;;;;12.02;4.68;;;16.90;99.90;;;;;;4213242;28;20051;-80
2023/07/24 04:14:03;;;;;;;12.63;5.38;;;17.00;99.90;;;;;;4231402;28;20142;-80
2023/07/24 04:16:04;;;;;;;10.98;5.25;;;17.30;99.90;;;;;;4229578;28;20047;-81
2023/07/24 04:18:05;;;;;;;8.48;4.78;;;17.00;99.90;;;;;;4229676;28;20483;-80
2023/07/24 04:20:06;;;;;;;7.75;4.63;;;17.00;99.90;;;;;;4213059;28;20052;-80
2023/07/24 04:22:07;;;;;;;13.50;4.68;;;17.10;99.90;;;;;;4231510;28;20039;-80
2023/07/24 04:24:09;;;;;;;9.93;5.22;;;17.10;99.90;;;;;;4230009;28;20042;-80
2023/07/24 04:26:09;;;;;;;9.45;5.30;;;17.10;99.90;;;;;;4229729;28;20047;-81
2023/07/24 04:28:10;;;;;;;11.57;4.88;;;17.00;99.90;;;;;;4229613;28;20126;-80
2023/07/24 04:30:11;;;;;;;10.10;4.88;;;17.10;99.90;;;;;;4229803;28;20047;-80
2023/07/24 04:32:12;;;;;;;10.68;4.53;;;17.10;99.90;;;;;;4229555;28;20078;-80
2023/07/24 04:34:12;;;;;;;8.02;4.75;;;17.00;99.90;;;;;;4230715;28;20046;-80
2023/07/24 04:36:13;;;;;;;11.27;4.88;;;17.10;99.90;;;;;;4231076;28;20528;-80
2023/07/24 04:38:14;;;;;;;12.82;5.28;;;17.00;99.90;;;;;;4229540;28;20126;-81
2023/07/24 04:40:14;;;;;;;8.68;5.10;;;17.10;99.90;;;;;;4230770;28;20046;-80
2023/07/24 04:42:15;;;;;;;10.30;4.75;;;17.20;99.90;;;;;;4230921;28;20469;-81
2023/07/24 04:44:16;;;;;;;10.05;4.65;;;17.00;99.90;;;;;;4229802;28;20047;-80
2023/07/24 04:46:16;;;;;;;10.73;5.25;;;17.10;99.90;;;;;;4229427;28;20047;-81
2023/07/24 04:48:17;;;;;;;8.63;4.97;;;17.00;99.90;;;;;;4229616;28;20469;-80
2023/07/24 04:50:19;;;;;;;11.45;5.25;;;17.30;99.90;;;;;;4229204;28;20090;-80
2023/07/24 04:52:19;;;;;;;9.88;5.20;;;17.20;99.90;;;;;;4229642;28;20035;-80
2023/07/24 04:54:20;;;;;;;13.25;5.75;;;17.00;99.90;;;;;;4230195;28;20526;-81
2023/07/24 04:56:21;;;;;;;10.98;4.93;;;17.30;99.90;;;;;;4230620;28;20066;-80
2023/07/24 04:58:22;;;;;;;11.55;6.00;;;17.10;99.90;;;;;;4230641;28;20051;-80
2023/07/24 05:00:22;;;;;;;9.15;5.75;;;17.00;99.90;;;;;;4231000;28;20063;-80
2023/07/24 05:02:23;;;;;;;8.23;4.57;;;17.10;99.90;;;;;;4228629;28;20047;-80
2023/07/24 05:04:24;;;;;;;8.90;4.93;;;17.10;99.90;;;;;;4229576;28;20040;-80
2023/07/24 05:06:24;;;;;;;9.05;5.05;;;17.10;99.90;;;;;;4229474;28;20067;-80
2023/07/24 05:08:26;;;;;;;11.35;6.05;;;17.10;99.90;;;;;;4230521;28;20043;-80
2023/07/24 05:10:27;;;;;;;10.88;5.72;;;17.20;99.90;;;;;;4229297;28;20044;-80
2023/07/24 05:12:27;;;;;;;12.43;5.20;;;17.10;99.90;;;;;;4212002;28;20036;-80
2023/07/24 05:14:28;;;;;;;9.32;4.97;;;17.10;99.90;;;;;;4229112;28;20120;-81
2023/07/24 05:16:31;;;;;;;11.70;5.68;;;17.00;99.90;;;;;;4230562;28;20044;-80
2023/07/24 05:18:31;;;;;;;10.05;5.55;;;17.20;99.90;;;;;;4228814;28;20127;-80
2023/07/24 05:20:32;;;;;;;11.77;6.22;;;16.80;99.90;;;;;;4229095;28;20044;-80
2023/07/24 05:22:33;;;;;;;7.43;5.43;;;17.10;99.90;;;;;;4228957;28;20116;-80
2023/07/24 05:24:33;;;;;;;12.73;5.47;;;17.30;99.90;;;;;;4229414;28;20122;-80
2023/07/24 05:26:34;;;;;;;8.60;5.93;;;17.10;99.90;;;;;;4228698;28;20087;-80
2023/07/24 05:28:35;;;;;;;9.82;6.18;;;17.10;99.90;;;;;;4230451;28;20048;-80
2023/07/24 05:30:36;;;;;;;10.38;5.95;;;17.30;99.90;;;;;;4230203;28;20047;-80
2023/07/24 05:32:37;;;;;;;9.90;5.95;;;17.30;99.90;;;;;;4229971;28;20507;-80
2023/07/24 05:34:37;;;;;;;11.40;6.45;;;17.30;99.90;;;;;;4230384;28;20077;-80
2023/07/24 05:36:39;;;;;;;12.75;5.93;;;17.20;99.90;;;;;;4230181;28;20372;-80
2023/07/24 05:38:40;;;;;;;14.20;6.07;;;17.30;99.90;;;;;;4228851;28;20043;-80
2023/07/24 05:40:41;;;;;;;13.50;6.28;;;17.40;99.90;;;;;;4230586;28;20065;-80
2023/07/24 05:42:43;;;;;;;9.40;5.40;;;17.40;99.90;;;;;;4228625;28;20051;-80
2023/07/24 05:44:43;;;;;;;11.90;6.30;;;17.40;99.90;;;;;;4230514;28;20120;-80
2023/07/24 05:46:44;;;;;;;12.10;5.63;;;17.30;99.90;;;;;;4229418;28;20451;-80
2023/07/24 05:48:45;;;;;;;10.55;6.40;;;17.30;99.90;;;;;;4228934;28;20511;-80
2023/07/24 05:50:47;;;;;;;9.48;5.57;;;17.40;99.90;;;;;;4230017;28;20040;-80
2023/07/24 05:52:49;;;;;;;10.38;5.97;;;17.10;99.90;;;;;;4211673;28;20044;-80
2023/07/24 05:54:50;;;;;;;11.90;5.75;;;17.40;99.90;;;;;;4229994;28;20036;-80
2023/07/24 05:56:52;;;;;;;14.32;6.20;;;18.50;99.90;;;;;;4228667;28;20407;-80
2023/07/24 05:58:53;;;;;;;10.68;5.43;;;17.40;99.90;;;;;;4229225;28;20093;-80
2023/07/24 06:00:55;;;;;;;10.65;5.25;;;17.50;99.90;;;;;;4230545;28;20039;-80
2023/07/24 06:02:55;;;;;;;12.27;5.53;;;17.40;99.90;;;;;;4230253;28;20044;-80
2023/07/24 06:04:56;;;;;;;9.88;6.38;;;17.40;99.90;;;;;;4232701;28;20035;-80
2023/07/24 06:06:57;;;;;;;12.18;5.47;;;17.30;99.90;;;;;;4232003;28;20130;-80
2023/07/24 06:08:57;;;;;;;12.70;6.90;;;17.40;99.90;;;;;;4231787;28;20514;-80
2023/07/24 06:10:58;;;;;;;12.50;6.15;;;17.30;99.90;;;;;;4215292;28;20179;-80
2023/07/24 06:12:59;;;;;;;11.13;6.05;;;16.00;99.90;;;;;;4214997;28;20047;-80
2023/07/24 06:15:00;;;;;;;10.63;5.90;;;17.30;99.90;;;;;;4233254;28;20419;-80
2023/07/24 06:17:00;;;;;;;10.80;5.68;;;17.40;99.90;;;;;;4233644;28;20031;-80
2023/07/24 06:19:01;;;;;;;12.43;5.97;;;17.40;99.90;;;;;;4231009;28;20093;-80
2023/07/24 06:21:02;;;;;;;9.25;5.65;;;17.40;99.90;;;;;;4231825;28;20047;-80
2023/07/24 06:23:03;;;;;;;11.02;5.35;;;17.50;99.90;;;;;;4233095;28;20134;-80
2023/07/24 06:25:05;;;;;;;11.23;6.15;;;17.90;99.90;;;;;;4233455;28;20044;-80
2023/07/24 06:27:06;;;;;;;10.88;6.07;;;17.60;99.90;;;;;;4231711;28;20120;-80
2023/07/24 06:29:07;;;;;;;10.85;5.90;;;17.80;99.90;;;;;;4233089;27;20043;-80
2023/07/24 06:31:07;;;;;;;13.15;5.70;;;17.50;99.90;;;;;;4231797;28;20079;-80
2023/07/24 06:33:08;;;;;;;7.63;5.03;;;17.80;99.90;;;;;;4231786;28;20483;-80
2023/07/24 06:35:09;;;;;;;11.50;5.72;;;18.80;99.90;;;;;;4232288;28;20043;-80
2023/07/24 06:37:10;;;;;;;10.27;6.25;;;17.70;99.90;;;;;;4232681;28;20039;-80
2023/07/24 06:39:10;;;;;;;10.88;5.35;;;17.90;99.90;;;;;;4231337;28;20047;-80
2023/07/24 06:41:11;;;;;;;12.73;5.40;;;17.80;99.90;;;;;;4231380;28;20047;-80
2023/07/24 06:43:12;;;;;;;10.85;5.95;;;17.90;99.90;;;;;;4231509;28;20043;-80
2023/07/24 06:45:12;;;;;;;13.15;5.18;;;17.90;99.90;;;;;;4233120;28;20035;-80
2023/07/24 06:47:13;;;;;;;12.13;5.05;;;18.00;99.90;;;;;;4231044;28;20039;-80
2023/07/24 06:49:14;;;;;;;10.40;5.07;;;18.00;99.90;;;;;;4231262;28;20090;-80
2023/07/24 06:51:14;;;;;;;12.40;6.03;;;18.20;99.90;;;;;;4231480;28;20105;-80
2023/07/24 06:53:15;;;;;;;10.80;5.20;;;18.00;99.90;;;;;;4231462;28;20055;-80
2023/07/24 06:55:16;;;;;;;13.45;5.03;;;17.90;99.90;;;;;;4231028;28;20048;-80
2023/07/24 06:57:17;;;;;;;9.02;5.20;;;18.00;99.90;;;;;;4232357;28;20055;-80
2023/07/24 06:59:17;;;;;;;9.85;5.25;;;18.00;99.90;;;;;;4230866;28;20039;-80
2023/07/24 07:01:18;;;;;;;13.93;5.38;;;19.00;99.90;;;;;;4230739;28;20077;-80
2023/07/24 07:03:19;;;;;;;11.40;5.60;;;18.30;99.90;;;;;;4214475;28;20044;-80
2023/07/24 07:05:19;;;;;;;14.32;5.90;;;18.70;99.90;;;;;;4230946;28;20040;-80
2023/07/24 07:07:20;;;;;;;9.77;5.45;;;18.10;99.90;;;;;;4232950;28;20104;-80
2023/07/24 07:09:21;;;;;;;11.00;5.65;;;18.10;99.90;;;;;;4231855;28;20090;-80
2023/07/24 07:11:21;;;;;;;14.70;5.95;;;18.20;99.90;;;;;;4230766;28;20047;-80
2023/07/24 07:13:22;;;;;;;13.45;5.70;;;18.70;99.90;;;;;;4231333;28;20118;-80
2023/07/24 07:15:24;;;;;;;11.75;5.40;;;18.30;99.90;;;;;;4231892;28;20074;-80
2023/07/24 07:17:24;;;;;;;10.40;5.45;;;18.40;99.90;;;;;;4231658;28;20062;-80
2023/07/24 07:19:25;;;;;;;12.00;5.53;;;18.30;99.90;;;;;;4232548;28;20044;-80
2023/07/24 07:21:26;;;;;;;16.60;6.38;;;18.50;99.90;;;;;;4214280;28;20083;-80
2023/07/24 07:23:27;;;;;;;9.85;5.60;;;19.10;99.90;;;;;;4230965;28;20550;-80
2023/07/24 07:25:27;;;;;;;12.98;5.85;;;18.50;99.90;;;;;;4231708;28;20547;-81
2023/07/24 07:27:28;;;;;;;9.25;4.70;;;18.50;99.90;;;;;;4230721;28;20402;-80
2023/07/24 07:29:29;;;;;;;12.07;5.50;;;18.40;99.90;;;;;;4232193;28;20047;-81
2023/07/24 07:31:29;;;;;;;10.55;5.20;;;18.50;99.90;;;;;;4232533;28;20078;-80
2023/07/24 07:33:30;;;;;;;18.42;6.53;;;18.50;99.90;;;;;;4231708;28;20157;-81
2023/07/24 07:35:34;;;;;;;11.35;5.60;;;18.50;99.90;;;;;;4229968;28;20872;-80
2023/07/24 07:37:35;;;;;;;12.52;5.45;;;18.60;99.90;;;;;;4231909;28;20487;-80
2023/07/24 07:39:36;;;;;;;12.48;5.47;;;18.60;99.90;;;;;;4213529;28;20131;-80
2023/07/24 07:41:36;;;;;;;13.48;5.47;;;18.60;99.90;;;;;;4230653;28;20043;-80
2023/07/24 07:43:38;;;;;;;11.95;5.53;;;18.50;99.90;;;;;;4231670;28;20118;-81
2023/07/24 07:45:39;;;;;;;10.68;5.32;;;18.60;99.90;;;;;;4213050;28;20055;-80
2023/07/24 07:47:40;;;;;;;14.27;5.10;;;18.60;99.90;;;;;;4213074;28;20055;-80
2023/07/24 07:49:41;;;;;;;11.95;5.20;;;18.80;99.90;;;;;;4231691;28;20043;-80
2023/07/24 07:51:42;;;;;;;11.88;5.22;;;18.70;99.90;;;;;;4230342;28;20515;-80
2023/07/24 07:53:43;;;;;;;10.27;5.43;;;18.90;99.90;;;;;;4212878;28;20082;-82
2023/07/24 07:55:43;;;;;;;14.27;6.50;;;18.90;99.90;;;;;;4213239;28;20044;-79
2023/07/24 07:57:44;;;;;;;13.15;5.68;;;20.10;99.90;;;;;;4213063;28;20122;-80
2023/07/24 07:59:45;;;;;;;12.90;5.55;;;19.10;99.90;;;;;;4231874;28;20048;-79
2023/07/24 08:01:46;;;;;;;16.98;6.47;;;18.90;99.90;;;;;;4213385;28;20047;-80
2023/07/24 08:03:46;;;;;;;12.30;5.60;;;19.00;99.90;;;;;;4230692;28;20036;-80
2023/07/24 08:05:47;;;;;;;12.35;5.85;;;19.10;99.90;;;;;;4231202;28;20068;-80
2023/07/24 08:07:48;;;;;;;12.52;5.43;;;19.10;99.90;;;;;;4230158;28;20393;-79
2023/07/24 08:09:49;;;;;;;16.38;6.05;;;19.20;99.90;;;;;;4231748;28;20042;-79
2023/07/24 08:11:51;;;;;;;17.23;5.57;;;19.10;99.90;;;;;;4230156;28;20093;-79
2023/07/24 08:13:51;;;;;;;13.70;5.32;;;19.10;99.90;;;;;;4213349;28;20503;-79
2023/07/24 08:15:53;;;;;;;9.57;5.20;;;19.40;99.90;;;;;;4229884;28;20043;-80
2023/07/24 08:17:54;;;;;;;14.57;5.40;;;20.20;99.90;;;;;;4229900;28;20530;-80
2023/07/24 08:19:54;;;;;;;10.57;4.90;;;19.40;99.90;;;;;;4229898;28;20035;-80
2023/07/24 08:21:55;;;;;;;10.52;5.10;;;19.40;99.90;;;;;;4231453;28;20737;-80
2023/07/24 08:23:57;;;;;;;12.52;5.43;;;19.60;99.90;;;;;;4229151;28;20044;-80
2023/07/24 08:25:57;;;;;;;9.40;5.40;;;19.40;99.90;;;;;;4231474;28;20529;-79
2023/07/24 08:27:58;;;;;;;10.23;4.78;;;19.50;99.90;;;;;;4229566;28;20043;-80
2023/07/24 08:29:59;;;;;;;9.23;4.53;;;19.60;99.90;;;;;;4231659;28;20768;-79
2023/07/24 08:31:59;;;;;;;16.95;5.10;;;19.50;99.90;;;;;;4229827;28;20043;-79
2023/07/24 08:34:00;;;;;;;11.52;4.60;;;19.60;99.90;;;;;;4230409;28;20036;-80
2023/07/24 08:36:05;;;;;;;12.90;4.78;;;19.60;99.90;;;;;;4230906;28;20043;-79
2023/07/24 08:38:06;;;;;;;11.63;4.70;;;19.60;99.90;;;;;;4231060;28;20671;-80
2023/07/24 08:40:07;;;;;;;8.52;4.70;;;19.60;99.90;;;;;;4229587;28;20047;-80
2023/07/24 08:42:12;;;;;;;13.15;4.97;;;19.00;99.90;;;;;;4229856;28;20047;-80
2023/07/24 08:44:13;;;;;;;8.63;4.50;;;19.60;99.90;;;;;;4229431;28;20093;-80
2023/07/24 08:46:14;;;;;;;12.77;4.95;;;19.60;99.90;;;;;;4230337;28;20075;-80
2023/07/24 08:48:15;;;;;;;13.88;4.93;;;19.50;99.90;;;;;;4230522;28;20048;-80
2023/07/24 08:50:17;;;;;;;13.60;5.57;;;19.90;99.90;;;;;;4230054;28;20407;-80
2023/07/24 08:52:18;;;;;;;11.70;4.82;;;19.50;99.90;;;;;;4230026;28;20048;-80
2023/07/24 08:54:20;;;;;;;9.98;4.50;;;19.50;99.90;;;;;;4228941;28;20040;-80
2023/07/24 08:56:20;;;;;;;9.75;4.70;;;19.40;99.90;;;;;;4230800;28;20079;-80
2023/07/24 08:58:22;;;;;;;11.70;4.32;;;19.50;99.90;;;;;;4230046;28;20040;-80
2023/07/24 09:00:24;;;;;;;9.88;4.60;;;19.50;99.90;;;;;;4229625;28;20113;-80
2023/07/24 09:02:25;;;;;;;11.45;4.32;;;19.40;99.90;;;;;;4229704;28;20453;-79
2023/07/24 09:04:26;;;;;;;18.48;5.03;;;19.60;99.90;;;;;;4228755;28;20073;-79
2023/07/24 09:06:27;;;;;;;10.98;4.38;;;19.60;99.90;;;;;;4230338;28;20072;-80
2023/07/24 09:08:30;;;;;;;9.88;4.70;;;19.60;99.90;;;;;;4230564;28;20040;-79
2023/07/24 09:10:31;;;;;;;13.02;5.43;;;19.80;99.90;;;;;;4230681;28;20449;-80
2023/07/24 09:12:31;;;;;;;10.68;4.97;;;19.80;99.90;;;;;;4212106;28;20119;-79
2023/07/24 09:14:32;;;;;;;9.77;4.32;;;20.00;99.90;;;;;;4228750;28;20049;-80
2023/07/24 09:16:33;;;;;;;8.35;4.72;;;20.10;99.90;;;;;;4212602;28;20496;-80
2023/07/24 09:18:41;;;;;;;9.73;3.88;;;20.00;99.90;;;;;;4230411;28;20449;-80
2023/07/24 09:20:44;;;;;;;12.30;4.75;;;20.10;99.90;;;;;;4230038;28;20036;-80
2023/07/24 09:22:53;;;;;;;8.82;4.20;;;20.00;99.90;;;;;;4230553;28;20419;-80
2023/07/24 09:24:55;;;;;;;10.20;4.65;;;20.00;99.90;;;;;;4230501;28;20092;-80
2023/07/24 09:26:56;;;;;;;10.68;5.00;;;20.00;99.90;;;;;;4230483;28;20039;-80
2023/07/24 09:28:57;;;;;;;9.60;4.43;;;20.00;99.90;;;;;;4230413;28;20043;-80
2023/07/24 09:31:00;;;;;;;13.55;4.18;;;20.10;99.90;;;;;;4229141;28;20077;-80
2023/07/24 09:33:01;;;;;;;8.65;4.60;;;20.30;99.90;;;;;;4230017;28;20044;-80
2023/07/24 09:35:02;;;;;;;14.02;4.63;;;20.20;99.90;;;;;;4230255;28;20054;-80
2023/07/24 09:37:03;;;;;;;10.60;4.55;;;20.30;99.90;;;;;;4212467;28;20052;-80
2023/07/24 09:39:06;;;;;;;12.65;4.65;;;20.50;99.90;;;;;;4213798;28;20052;-80
2023/07/24 09:41:07;;;;;;;11.57;4.00;;;20.50;99.90;;;;;;4215802;28;20086;-80
2023/07/24 09:43:18;;;;;;;8.85;3.95;;;20.60;99.90;;;;;;4232472;28;20051;-80
2023/07/24 09:45:20;;;;;;;12.30;4.72;;;20.90;99.90;;;;;;4233668;28;20112;-80
2023/07/24 09:47:22;;;;;;;11.18;3.92;;;;;;;;;;4234208;28;20043;-80
2023/07/24 09:49:23;;;;;;;13.93;4.30;;;21.10;99.90;;;;;;4215098;28;20044;-80
2023/07/24 09:51:23;;;;;;;18.40;5.15;;;21.40;99.90;;;;;;4232284;28;20058;-80
2023/07/24 09:53:36;;;;;;;10.48;4.10;;;21.40;99.90;;;;;;4232103;28;20098;-80
2023/07/24 09:55:49;;;;;;;9.98;4.50;;;21.50;99.90;;;;;;4233586;28;20039;-80
2023/07/24 09:57:53;;;;;;;10.65;4.03;;;21.60;99.90;;;;;;4233783;28;20047;-80
2023/07/24 09:59:55;;;;;;;8.57;3.45;;;;;;;;;;4232375;28;20040;-80
2023/07/24 10:01:56;;;;;;;10.20;3.85;;;21.60;99.90;;;;;;4233698;28;20123;-80
2023/07/24 10:03:58;;;;;;;7.82;3.65;;;22.00;99.90;;;;;;4232221;28;20051;-80
2023/07/24 10:06:00;;;;;;;5.75;3.33;;;22.00;99.90;;;;;;4233563;28;20090;-80
2023/07/24 10:08:00;;;;;;;9.25;3.63;;;22.00;99.90;;;;;;4232914;28;20035;-80
2023/07/24 10:10:02;;;;;;;10.70;3.47;;;22.40;99.90;;;;;;4232213;28;20527;-80
2023/07/24 10:12:03;;;;;;;10.10;3.97;;;22.50;99.90;;;;;;4233398;27;20471;-80
2023/07/24 10:14:04;;;;;;;6.28;3.33;;;22.70;99.90;;;;;;4232755;28;20115;-80
2023/07/24 10:16:06;;;;;;;8.18;2.95;;;22.80;99.90;;;;;;4233695;28;20539;-80
2023/07/24 10:18:08;;;;;;;9.93;3.72;;;;;;;;;;4232840;28;20043;-80
2023/07/24 10:20:10;;;;;;;6.32;3.35;;;;;;;;;;4233533;28;20445;-80
2023/07/24 10:22:19;;;;;;;8.82;3.58;;;;;;;;;;4232221;28;20040;-80
2023/07/24 10:24:23;;;;;;;8.13;3.28;;;22.90;99.90;;;;;;4232680;28;20047;-80
2023/07/24 10:26:26;;;;;;;8.57;3.72;;;23.00;99.90;;;;;;4232256;28;20047;-80